Time;durP1;ratioP1;P1;durP2;ratioP2;P2;SDS_P1;SDS_P2;PMS_P1;PMS_P2;Temp;Humidity;BMP_temperature;BMP_pressure;BME280_temperature;BME280_humidity;BME280_pressure;Samples;Min_cycle;Max_cycle;Signal;HPM_P1;HPM_P2
2022/04/25 00:01:17;;;;;;;4.40;4.03;;;;;;;10.59;93.83;98386.63;8199417;28;20061;-71
2022/04/25 00:05:19;;;;;;;4.43;3.78;;;;;;;10.57;93.99;98388.38;8219281;28;20060;-70
2022/04/25 00:09:20;;;;;;;4.40;3.95;;;;;;;10.60;94.11;98390.09;8214619;28;20717;-71
2022/04/25 00:13:22;;;;;;;5.53;4.85;;;;;;;10.55;94.16;98390.16;8214324;28;20118;-71
2022/04/25 00:17:24;;;;;;;4.25;3.88;;;;;;;10.52;94.07;98389.38;8186903;28;20050;-70
2022/04/25 00:21:26;;;;;;;4.80;4.40;;;;;;;10.52;94.56;98376.41;8223969;28;20141;-70
2022/04/25 00:25:28;;;;;;;4.93;4.43;;;;;;;10.51;94.26;98369.50;8217277;28;21116;-70
2022/04/25 00:29:29;;;;;;;4.45;4.05;;;;;;;10.51;94.99;98354.78;8224579;28;20046;-71
2022/04/25 00:33:31;;;;;;;5.20;4.32;;;;;;;10.51;94.76;98348.72;8215775;28;20367;-70
2022/04/25 00:37:32;;;;;;;7.13;4.95;;;;;;;10.50;94.85;98327.13;8223901;28;20367;-70
2022/04/25 00:41:34;;;;;;;4.80;4.22;;;;;;;10.41;94.10;98337.72;8216634;28;20050;-70
2022/04/25 00:45:36;;;;;;;7.45;4.78;;;;;;;10.34;94.04;98353.41;8219302;28;20430;-71
2022/04/25 00:49:37;;;;;;;5.50;4.20;;;;;;;10.36;94.19;98342.13;8222846;28;20130;-71
2022/04/25 00:53:39;;;;;;;5.97;4.73;;;;;;;10.38;93.97;98324.78;8221415;28;20387;-72
2022/04/25 00:57:41;;;;;;;7.77;4.23;;;;;;;10.39;93.61;98328.22;8223487;28;20994;-71
2022/04/25 01:01:44;;;;;;;4.75;3.95;;;;;;;10.37;93.65;98330.00;8200235;28;20082;-71
2022/04/25 01:05:46;;;;;;;4.90;4.45;;;;;;;10.36;93.95;98331.72;8217258;28;20054;-71
2022/04/25 01:09:47;;;;;;;4.93;4.22;;;;;;;10.34;94.14;98337.84;8224445;28;20081;-71
2022/04/25 01:13:49;;;;;;;5.40;4.47;;;;;;;10.27;94.10;98335.38;8222388;28;20047;-71
2022/04/25 01:17:51;;;;;;;4.28;3.90;;;;;;;10.22;94.08;98339.78;8218081;28;20082;-72
2022/04/25 01:22:01;;;;;;;5.05;4.55;;;;;;;10.22;94.28;98333.75;8224753;28;20053;-71
2022/04/25 01:30:23;;;;;;;4.90;4.43;;;;;;;10.22;94.51;98339.78;8219529;28;20183;-71
2022/04/25 01:34:25;;;;;;;4.57;4.25;;;;;;;10.21;93.91;98334.63;8211762;28;20545;-71
2022/04/25 01:38:26;;;;;;;5.05;4.55;;;;;;;10.16;94.46;98341.63;8189620;28;20419;-71
2022/04/25 01:42:27;;;;;;;11.23;4.63;;;;;;;10.12;94.49;98339.97;8211784;28;20052;-71
2022/04/25 01:46:29;;;;;;;6.18;4.70;;;;;;;10.09;94.50;98343.50;8213803;28;20085;-71
2022/04/25 01:50:30;;;;;;;4.57;3.85;;;;;;;10.09;95.26;98337.47;8219811;28;20047;-71
2022/04/25 01:54:32;;;;;;;4.63;4.22;;;;;;;10.06;94.79;98342.72;8203446;28;20047;-71
2022/04/25 01:58:34;;;;;;;;;;;;;;;10.00;95.08;98347.09;8209820;28;20038;-71
2022/04/25 02:02:36;;;;;;;3.90;3.60;;;;;;;10.00;94.35;98339.31;8207784;28;19957;-71
2022/04/25 02:06:38;;;;;;;4.35;3.88;;;;;;;9.89;94.20;98343.88;8228745;28;20534;-71
2022/04/25 02:10:40;;;;;;;4.47;4.07;;;;;;;9.81;94.04;98343.16;8223757;28;20130;-71
2022/04/25 02:14:43;;;;;;;4.07;3.73;;;;;;;9.71;93.97;98345.94;8215824;28;20078;-71
2022/04/25 02:18:44;;;;;;;3.95;3.65;;;;;;;9.61;94.05;98353.03;8193551;28;20236;-72
2022/04/25 02:22:48;;;;;;;4.88;4.00;;;;;;;9.53;93.68;98357.50;8203925;28;20093;-71
2022/04/25 02:26:50;;;;;;;4.50;4.00;;;;;;;9.46;93.64;98356.72;8226063;28;20078;-71
2022/04/25 02:30:52;;;;;;;5.60;4.20;;;;;;;9.45;93.79;98357.59;8221724;28;20089;-71
2022/04/25 02:34:54;;;;;;;5.82;4.65;;;;;;;9.37;93.75;98354.28;8230704;28;20051;-72
2022/04/25 02:38:56;;;;;;;5.05;4.03;;;;;;;9.31;93.78;98367.31;8218432;28;20122;-72
2022/04/25 02:42:57;;;;;;;6.93;4.90;;;;;;;9.27;94.17;98363.94;8215778;28;20051;-72
2022/04/25 02:46:59;;;;;;;6.20;4.57;;;;;;;9.23;94.08;98364.88;8221889;28;20093;-71
2022/04/25 02:51:04;;;;;;;5.68;5.15;;;;;;;9.26;94.95;98372.59;8222697;28;20117;-71
2022/04/25 02:55:06;;;;;;;6.38;4.75;;;;;;;9.21;95.16;98379.56;8228263;28;20081;-71
2022/04/25 02:59:07;;;;;;;6.35;4.10;;;;;;;9.22;94.79;98389.06;8206275;28;20038;-71
2022/04/25 03:03:09;;;;;;;4.07;3.72;;;;;;;9.17;94.17;98390.00;8204467;28;20078;-71
2022/04/25 03:07:10;;;;;;;5.60;4.97;;;;;;;9.14;94.31;98385.72;8223755;28;20050;-72
2022/04/25 03:11:13;;;;;;;4.90;4.40;;;;;;;9.12;94.85;98377.13;8223147;28;20050;-71
2022/04/25 03:15:14;;;;;;;4.97;4.50;;;;;;;9.11;94.75;98372.81;8222749;28;20379;-71
2022/04/25 03:19:17;;;;;;;4.85;4.28;;;;;;;9.02;94.32;98375.56;8218025;28;20809;-71
2022/04/25 03:23:20;;;;;;;;;;;;;;;9.00;94.41;98379.91;8228696;28;20134;-71
2022/04/25 03:27:21;;;;;;;4.38;4.00;;;;;;;8.92;94.37;98386.91;8205048;28;20286;-71
2022/04/25 03:31:23;;;;;;;3.80;3.55;;;;;;;8.91;94.70;98370.50;8222691;28;20141;-71
2022/04/25 03:35:25;;;;;;;4.05;3.65;;;;;;;8.90;94.51;98371.41;8198985;28;20075;-71
2022/04/25 03:39:27;;;;;;;4.72;4.20;;;;;;;8.84;95.06;98375.81;8193955;28;20081;-71
2022/04/25 03:43:28;;;;;;;5.20;4.53;;;;;;;8.83;95.31;98369.78;8193699;29;20050;-71
2022/04/25 03:47:31;;;;;;;4.50;4.10;;;;;;;8.78;95.35;98372.41;8188163;28;20045;-71
2022/04/25 03:51:32;;;;;;;4.00;3.63;;;;;;;8.75;95.07;98372.47;8176291;29;20043;-72
2022/04/25 03:59:54;;;;;;;3.95;3.65;;;;;;;8.61;94.39;98383.84;8191787;29;20047;-72
2022/04/25 04:03:59;;;;;;;4.18;3.85;;;;;;;8.55;94.74;98378.78;8184708;29;20055;-71
2022/04/25 04:08:02;;;;;;;4.55;4.15;;;;;;;8.41;93.92;98382.38;8192599;29;20047;-71
2022/04/25 04:12:03;;;;;;;4.85;3.95;;;;;;;8.36;94.17;98378.16;8190958;29;20130;-71
2022/04/25 04:16:05;;;;;;;4.57;4.17;;;;;;;8.31;94.57;98375.59;8189238;29;20102;-72
2022/04/25 04:20:08;;;;;;;13.10;5.15;;;;;;;8.28;95.07;98383.38;8192634;29;20297;-71
2022/04/25 04:24:10;;;;;;;4.63;4.25;;;;;;;8.29;95.62;98395.44;8191872;29;20047;-72
2022/04/25 04:28:12;;;;;;;4.32;3.92;;;;;;;8.28;95.89;98392.88;8189346;29;20149;-72
2022/04/25 04:32:14;;;;;;;3.75;3.47;;;;;;;8.23;94.79;98395.50;8167046;29;20143;-72
2022/04/25 04:36:18;;;;;;;3.42;3.13;;;;;;;8.18;94.41;98403.31;8186153;28;20078;-72
2022/04/25 04:40:29;;;;;;;3.80;3.50;;;;;;;8.07;94.13;98396.53;8209963;28;20042;-72
2022/04/25 04:44:30;;;;;;;3.40;3.10;;;;;;;7.98;93.11;98388.88;8220242;28;20042;-72
2022/04/25 04:48:33;;;;;;;3.63;2.65;;;;;;;7.92;92.79;98391.53;8220396;28;20699;-72
2022/04/25 04:52:34;;;;;;;4.20;3.80;;;;;;;7.88;93.27;98395.84;8201938;28;20074;-72
2022/04/25 04:56:35;;;;;;;3.47;3.23;;;;;;;7.92;93.29;98394.13;8223980;28;20070;-72
2022/04/25 05:00:37;;;;;;;10.70;3.33;;;;;;;7.93;93.45;98409.63;8218286;28;20049;-72
2022/04/25 05:04:38;;;;;;;9.13;3.97;;;;;;;7.91;93.85;98413.94;8222323;28;20057;-72
2022/04/25 05:08:40;;;;;;;14.05;4.60;;;;;;;7.92;94.98;98419.97;8225709;28;20046;-72
2022/04/25 05:12:54;;;;;;;5.03;4.63;;;;;;;8.06;95.89;98421.53;8202763;28;20412;-72
2022/04/25 05:16:55;;;;;;;5.45;4.95;;;;;;;8.22;96.47;98411.03;8224274;28;20054;-72
2022/04/25 05:20:57;;;;;;;7.27;5.47;;;;;;;8.38;96.61;98421.22;8216090;28;20046;-72
2022/04/25 05:24:59;;;;;;;5.73;5.17;;;;;;;8.57;96.42;98418.41;8218146;28;20055;-72
2022/04/25 05:29:01;;;;;;;5.68;5.15;;;;;;;8.69;96.76;98426.91;8228688;28;20460;-72
2022/04/25 05:33:02;;;;;;;7.20;5.90;;;;;;;8.77;96.57;98442.31;8219206;28;20055;-72
2022/04/25 05:37:04;;;;;;;8.63;6.27;;;;;;;8.90;96.79;98443.03;8204320;28;20074;-73
2022/04/25 05:41:09;;;;;;;8.13;6.95;;;;;;;9.02;96.54;98448.91;8229081;28;20053;-72
2022/04/25 05:45:13;;;;;;;20.02;8.15;;;;;;;9.08;96.66;98471.25;8176663;28;20085;-72
2022/04/25 05:53:35;;;;;;;9.57;7.47;;;;;;;9.21;96.34;98482.31;8226419;28;20595;-72
2022/04/25 05:57:37;;;;;;;9.82;7.68;;;;;;;9.24;96.56;98484.88;8210931;28;20081;-72
2022/04/25 06:01:38;;;;;;;9.40;8.27;;;;;;;9.28;95.95;98486.53;8198887;28;20053;-72
2022/04/25 06:05:40;;;;;;;11.15;8.90;;;;;;;9.29;96.42;98493.41;8225831;28;20732;-72
2022/04/25 06:09:41;;;;;;;9.02;7.80;;;;;;;9.30;96.17;98497.72;8224989;28;20126;-72
2022/04/25 06:13:44;;;;;;;11.88;9.00;;;;;;;9.31;96.80;98492.53;8225539;28;20130;-72
2022/04/25 06:17:46;;;;;;;10.18;8.57;;;;;;;9.31;96.45;98504.63;8225478;28;20046;-72
2022/04/25 06:21:47;;;;;;;9.50;8.43;;;;;;;9.31;96.69;98497.69;8211820;28;20141;-72
2022/04/25 06:25:49;;;;;;;8.88;7.95;;;;;;;9.39;96.00;98489.84;8224836;28;20051;-72
2022/04/25 06:29:52;;;;;;;10.68;8.73;;;;;;;9.50;95.74;98498.28;8227525;28;20495;-72
2022/04/25 06:33:54;;;;;;;12.13;8.77;;;;;;;9.56;95.33;98499.97;8197257;28;20080;-72
2022/04/25 06:37:55;;;;;;;12.45;9.00;;;;;;;9.64;95.84;98492.91;8219026;28;20357;-72
2022/04/25 06:41:57;;;;;;;15.13;10.73;;;;;;;9.69;95.66;98492.00;8225956;28;20093;-72
2022/04/25 06:45:58;;;;;;;14.30;10.73;;;;;;;9.84;94.96;98492.59;8220829;28;20055;-71
2022/04/25 06:50:00;;;;;;;16.90;11.38;;;;;;;10.02;94.81;98500.09;8201602;28;20106;-74
2022/04/25 06:54:02;;;;;;;15.75;11.63;;;;;;;10.09;94.55;98500.84;8205544;28;20050;-75
2022/04/25 06:58:04;;;;;;;16.77;10.70;;;;;;;10.18;94.20;98501.53;8220322;28;20149;-73
2022/04/25 07:02:05;;;;;;;16.83;11.45;;;;;;;10.31;93.61;98510.00;8222933;28;20291;-73
2022/04/25 07:06:07;;;;;;;16.50;12.03;;;;;;;10.36;92.92;98512.50;8225261;28;20070;-73
2022/04/25 07:10:09;;;;;;;17.65;11.18;;;;;;;10.43;92.59;98509.81;8224135;28;20047;-73
2022/04/25 07:14:15;;;;;;;14.57;10.27;;;;;;;10.49;92.45;98520.06;8224717;28;20052;-73
2022/04/25 07:18:17;;;;;;;14.77;10.73;;;;;;;10.56;92.44;98518.19;8209021;28;20034;-72
2022/04/25 07:30:59;;;;;;;17.38;11.25;;;;;;;10.70;91.81;98524.00;8221017;28;20073;-72
2022/04/25 07:35:04;;;;;;;15.47;11.83;;;;;;;10.71;91.55;98520.50;8231201;28;20620;-72
2022/04/25 07:39:05;;;;;;;17.38;12.38;;;;;;;10.67;91.03;98518.00;8208309;28;20081;-72
2022/04/25 07:43:07;;;;;;;16.02;11.45;;;;;;;10.69;90.82;98531.81;8203851;28;20062;-71
2022/04/25 07:47:09;;;;;;;15.07;11.85;;;;;;;10.64;90.31;98528.47;8215380;28;20054;-71
2022/04/25 07:51:10;;;;;;;13.75;11.27;;;;;;;10.64;90.89;98541.44;8188760;28;20043;-71
2022/04/25 07:55:12;;;;;;;17.00;13.15;;;;;;;10.67;91.45;98536.19;8207483;28;20525;-72
2022/04/25 07:59:14;;;;;;;19.17;14.50;;;;;;;10.66;91.29;98540.53;8216580;28;20408;-71
2022/04/25 08:03:16;;;;;;;;;;;;;;;10.68;91.52;98549.13;8204671;28;20058;-72
2022/04/25 08:07:17;;;;;;;19.85;13.57;;;;;;;10.72;91.53;98548.19;8228142;28;19926;-73
2022/04/25 08:11:20;;;;;;;20.55;13.93;;;;;;;10.73;91.68;98546.44;8232562;28;20042;-71
2022/04/25 08:19:42;;;;;;;21.38;13.30;;;;;;;11.00;91.22;98558.91;8219375;28;20374;-72
2022/04/25 08:23:46;;;;;;;15.45;12.20;;;;;;;11.16;90.97;98560.34;8213578;28;20066;-72
2022/04/25 08:27:48;;;;;;;16.52;12.32;;;;;;;11.26;90.71;98566.19;8220965;28;20161;-71
2022/04/25 08:31:49;;;;;;;14.57;12.30;;;;;;;11.35;90.10;98571.19;8216875;28;20070;-71
2022/04/25 08:35:51;;;;;;;16.80;12.40;;;;;;;11.51;89.65;98569.16;8221997;28;20070;-72
2022/04/25 08:39:53;;;;;;;20.13;14.15;;;;;;;11.75;89.13;98563.41;8221614;28;20039;-72
2022/04/25 08:43:55;;;;;;;15.70;13.13;;;;;;;12.04;86.62;98572.31;8221869;28;20070;-72
2022/04/25 08:47:58;;;;;;;16.05;12.38;;;;;;;12.44;83.67;98586.97;8214784;28;20049;-72
2022/04/25 08:52:00;;;;;;;15.38;12.57;;;;;;;12.68;82.18;98586.34;8219771;28;20467;-73
2022/04/25 08:56:03;;;;;;;16.80;12.73;;;;;;;12.82;83.56;98581.63;8218794;28;20073;-72
2022/04/25 09:00:06;;;;;;;18.08;11.88;;;;;;;13.02;82.69;98578.47;8221435;28;20153;-72
2022/04/25 09:04:08;;;;;;;15.52;12.23;;;;;;;13.20;79.74;98584.97;8204186;28;20059;-71
2022/04/25 09:08:10;;;;;;;14.25;12.15;;;;;;;13.25;79.44;98581.34;8211544;28;20039;-71
2022/04/25 09:12:14;;;;;;;15.93;12.37;;;;;;;13.33;78.45;98588.09;8202060;28;20428;-71
2022/04/25 09:16:16;;;;;;;14.65;12.15;;;;;;;13.35;78.03;98586.31;8191008;28;20629;-71
2022/04/25 09:20:19;;;;;;;13.43;11.57;;;;;;;13.36;79.17;98596.69;8200890;28;20042;-71
2022/04/25 09:24:25;;;;;;;15.55;11.77;;;;;;;13.25;77.73;98604.78;8212569;28;20167;-71
2022/04/25 09:28:27;;;;;;;13.80;10.77;;;;;;;13.15;78.19;98608.53;8223453;28;20056;-71
2022/04/25 09:32:32;;;;;;;14.07;11.48;;;;;;;13.08;77.23;98621.75;8212603;28;20511;-71
2022/04/25 09:36:46;;;;;;;11.70;10.25;;;;;;;13.09;77.67;98618.25;8222075;28;20084;-71
2022/04/25 09:40:50;;;;;;;11.55;10.18;;;;;;;13.09;79.15;98618.25;8220133;28;20053;-71
2022/04/25 09:44:59;;;;;;;13.63;10.47;;;;;;;13.13;79.58;98619.91;8219212;28;20670;-71
2022/04/25 09:49:03;;;;;;;15.65;10.05;;;;;;;13.13;77.96;98614.69;8202898;28;20060;-71
2022/04/25 09:53:06;;;;;;;12.23;9.70;;;;;;;13.22;78.22;98622.28;8199082;28;20392;-71
2022/04/25 09:57:27;;;;;;;13.60;9.90;;;;;;;13.43;79.12;98620.81;8197860;28;20051;-71
2022/04/25 10:01:30;;;;;;;9.95;8.95;;;;;;;13.69;79.02;98620.09;8186227;28;20047;-71
2022/04/25 10:05:46;;;;;;;10.60;9.60;;;;;;;13.95;77.58;98630.59;8178077;28;20046;-71
2022/04/25 10:09:52;;;;;;;10.02;9.00;;;;;;;14.12;75.42;98620.50;8199241;28;20145;-71
2022/04/25 10:13:54;;;;;;;9.68;8.52;;;;;;;14.40;73.92;98611.81;8202059;28;20070;-71
2022/04/25 10:17:56;;;;;;;10.55;9.45;;;;;;;14.72;72.33;98608.13;8196755;28;20629;-71
2022/04/25 10:21:58;;;;;;;9.88;8.73;;;;;;;15.28;71.97;98616.66;8181750;28;20129;-71
2022/04/25 10:26:01;;;;;;;8.57;7.72;;;;;;;15.78;68.85;98621.78;8200329;28;20479;-71
2022/04/25 10:30:10;;;;;;;12.88;8.48;;;;;;;16.32;67.31;98612.69;8204361;28;20537;-72
2022/04/25 10:34:15;;;;;;;9.48;8.18;;;;;;;16.73;68.20;98612.84;8215921;28;20340;-72
2022/04/25 10:38:47;;;;;;;9.82;8.82;;;;;;;16.83;65.46;98622.84;8222960;28;20748;-71
2022/04/25 10:47:54;;;;;;;9.02;8.05;;;;;;;15.85;61.39;98633.75;8208341;28;20061;-72
2022/04/25 10:51:55;;;;;;;9.13;8.05;;;;;;;15.89;61.25;98629.25;8220794;28;20039;-72
2022/04/25 10:56:07;;;;;;;9.17;7.80;;;;;;;16.24;63.66;98631.34;8223335;28;20050;-72
2022/04/25 11:00:39;;;;;;;9.43;7.47;;;;;;;16.68;61.21;98626.09;8216435;28;20062;-72
2022/04/25 11:04:41;;;;;;;;;;;;;;;17.18;60.68;98623.97;8198762;28;20046;-73
2022/04/25 11:08:49;;;;;;;8.40;7.60;;;;;;;17.45;60.61;98624.53;8222446;28;19964;-72
2022/04/25 11:12:55;;;;;;;8.85;7.18;;;;;;;17.57;59.61;98622.28;8221971;28;20054;-72
2022/04/25 11:17:13;;;;;;;8.93;8.02;;;;;;;17.98;56.79;98616.03;8216988;28;20085;-72
2022/04/25 11:21:32;;;;;;;9.30;7.75;;;;;;;17.97;56.71;98618.72;8219102;28;20475;-72
2022/04/25 11:25:34;;;;;;;8.57;7.72;;;;;;;17.95;56.82;98616.13;8217413;28;20077;-72
2022/04/25 11:29:43;;;;;;;8.30;7.57;;;;;;;18.10;58.66;98619.84;8215936;28;20042;-72
2022/04/25 11:33:46;;;;;;;9.25;6.75;;;;;;;17.98;57.37;98612.56;8216775;28;20042;-72
2022/04/25 11:37:48;;;;;;;8.95;8.05;;;;;;;17.77;53.83;98615.25;8207943;28;20077;-73
2022/04/25 11:41:50;;;;;;;7.75;7.05;;;;;;;17.65;55.92;98617.53;8220694;28;20134;-72
2022/04/25 11:45:53;;;;;;;7.53;6.93;;;;;;;17.75;56.62;98621.47;8219579;28;20764;-72
2022/04/25 11:50:03;;;;;;;7.80;6.75;;;;;;;17.57;55.80;98617.88;8225591;28;20113;-72
2022/04/25 11:54:09;;;;;;;6.93;6.30;;;;;;;17.84;55.43;98614.97;8223301;28;20058;-72
2022/04/25 11:58:11;;;;;;;8.13;7.38;;;;;;;18.26;53.03;98617.31;8223231;28;20823;-72
2022/04/25 12:02:13;;;;;;;9.47;7.50;;;;;;;18.55;51.98;98614.16;8216273;28;20047;-72
2022/04/25 12:06:14;;;;;;;;;;;;;;;18.32;51.37;98611.81;8203409;28;20335;-72
2022/04/25 12:18:57;;;;;;;6.47;5.88;;;;;;;19.19;48.74;98604.78;8196404;28;20550;-72
2022/04/25 12:23:00;;;;;;;7.68;6.80;;;;;;;19.05;47.30;98599.41;8213007;28;20149;-72
2022/04/25 12:27:11;;;;;;;8.40;7.68;;;;;;;19.29;44.48;98606.03;8221004;28;20615;-72
2022/04/25 12:31:15;;;;;;;7.53;6.88;;;;;;;19.44;45.17;98614.91;8196366;28;20070;-72
2022/04/25 12:35:18;;;;;;;5.75;5.25;;;;;;;19.74;46.35;98604.53;8218485;28;20071;-71
2022/04/25 12:39:20;;;;;;;7.53;6.10;;;;;;;19.68;41.75;98610.13;8220278;28;20034;-71
2022/04/25 12:43:38;;;;;;;7.88;5.50;;;;;;;19.69;43.17;98603.94;8218192;28;20099;-72
2022/04/25 12:47:44;;;;;;;6.20;5.70;;;;;;;19.71;42.74;98594.16;8215202;28;20047;-72
2022/04/25 12:51:50;;;;;;;7.60;6.90;;;;;;;19.48;41.80;98590.97;8220168;28;20161;-72
2022/04/25 12:55:52;;;;;;;6.00;5.50;;;;;;;19.29;44.16;98596.34;8221960;28;20282;-72
2022/04/25 12:59:53;;;;;;;8.50;6.25;;;;;;;19.30;44.08;98592.78;8202873;28;20049;-72
2022/04/25 13:04:13;;;;;;;5.97;5.07;;;;;;;19.32;44.20;98595.34;8208748;28;20470;-72
2022/04/25 13:08:14;;;;;;;6.25;5.65;;;;;;;19.33;45.19;98587.34;8188807;28;20089;-72
2022/04/25 13:12:18;;;;;;;6.30;5.00;;;;;;;19.66;45.48;98583.03;8210622;28;20077;-72
2022/04/25 13:16:19;;;;;;;6.97;5.18;;;;;;;19.87;44.07;98584.50;8216188;28;20716;-72
2022/04/25 13:20:22;;;;;;;6.88;6.13;;;;;;;19.44;41.41;98583.31;8220553;28;20035;-72
2022/04/25 13:24:23;;;;;;;6.35;5.75;;;;;;;19.05;44.36;98591.53;8221862;28;20057;-72
2022/04/25 13:28:25;;;;;;;7.35;6.15;;;;;;;18.67;43.83;98594.28;8211390;28;20042;-72
2022/04/25 13:32:33;;;;;;;6.45;5.22;;;;;;;19.06;46.63;98594.06;8214315;28;20056;-71
2022/04/25 13:36:35;;;;;;;7.00;6.35;;;;;;;19.31;44.76;98586.59;8223273;28;20508;-72
2022/04/25 13:40:37;;;;;;;8.10;6.47;;;;;;;19.40;45.43;98593.16;8224117;28;20438;-72
2022/04/25 13:44:38;;;;;;;6.82;6.03;;;;;;;19.47;42.96;98620.88;8218943;28;20053;-72
2022/04/25 13:48:40;;;;;;;3.90;3.17;;;;;;;19.02;41.82;98640.72;8216253;28;20875;-72
2022/04/25 13:52:41;;;;;;;7.72;1.58;;;;;;;18.12;41.78;98668.75;8219207;28;20070;-73
2022/04/25 13:56:44;;;;;;;5.05;1.35;;;;;;;17.51;41.72;98645.25;8212389;28;20046;-73
2022/04/25 14:00:45;;;;;;;4.28;2.08;;;;;;;16.96;41.30;98649.41;8215769;28;20047;-73
2022/04/25 14:04:47;;;;;;;2.07;1.03;;;;;;;16.48;43.06;98647.84;8222638;28;20054;-73
2022/04/25 14:08:49;;;;;;;3.10;1.20;;;;;;;16.29;45.05;98654.75;8220554;28;20046;-72
2022/04/25 14:12:56;;;;;;;2.80;0.98;;;;;;;16.24;45.16;98646.22;8218278;28;20053;-72
2022/04/25 14:16:58;;;;;;;1.53;1.10;;;;;;;16.11;44.19;98648.47;8216016;28;20050;-72
2022/04/25 14:21:00;;;;;;;1.27;1.17;;;;;;;16.15;45.20;98642.19;8196285;28;20684;-73
2022/04/25 14:25:03;;;;;;;1.60;1.50;;;;;;;16.13;44.68;98643.16;8217078;28;20046;-73
2022/04/25 14:29:04;;;;;;;1.33;1.23;;;;;;;16.31;44.94;98642.44;8188566;28;20868;-72
2022/04/25 14:33:09;;;;;;;3.22;1.58;;;;;;;16.24;44.66;98641.84;8182549;28;20062;-73
2022/04/25 14:37:10;;;;;;;1.80;1.43;;;;;;;16.31;44.95;98645.91;8203936;28;20046;-73
2022/04/25 14:41:13;;;;;;;2.10;1.40;;;;;;;16.34;44.52;98639.72;8204077;28;20094;-73
2022/04/25 14:45:15;;;;;;;2.77;1.30;;;;;;;16.18;44.36;98642.09;8199838;28;20450;-73
2022/04/25 14:49:19;;;;;;;1.40;1.30;;;;;;;16.08;45.81;98645.97;8204787;28;20088;-73
2022/04/25 14:57:40;;;;;;;2.35;1.00;;;;;;;15.89;47.25;98650.19;8224987;28;20066;-72
2022/04/25 15:01:42;;;;;;;0.83;0.83;;;;;;;15.83;49.61;98650.44;8215793;28;20130;-73
2022/04/25 15:05:44;;;;;;;2.47;1.13;;;;;;;15.74;49.01;98649.00;8210794;28;20308;-72
2022/04/25 15:09:46;;;;;;;1.20;1.02;;;;;;;15.52;48.90;98666.38;8210780;28;20068;-72
2022/04/25 15:13:48;;;;;;;2.05;1.20;;;;;;;15.36;51.74;98671.28;8223680;28;20047;-72
2022/04/25 15:17:49;;;;;;;1.27;1.17;;;;;;;15.18;52.15;98671.94;8201474;28;20046;-72
2022/04/25 15:21:51;;;;;;;2.85;1.05;;;;;;;15.07;53.67;98681.00;8222384;28;20158;-72
2022/04/25 15:25:52;;;;;;;4.50;1.20;;;;;;;14.91;53.70;98687.66;8225547;28;20074;-73
2022/04/25 15:29:54;;;;;;;2.83;1.23;;;;;;;14.89;55.09;98686.84;8227371;28;20444;-73
2022/04/25 15:33:55;;;;;;;2.40;1.40;;;;;;;14.85;56.33;98685.22;8196437;28;20080;-72
2022/04/25 15:37:57;;;;;;;2.90;1.03;;;;;;;14.95;58.43;98672.72;8221266;28;20679;-72
2022/04/25 15:41:59;;;;;;;1.70;1.60;;;;;;;15.09;59.82;98676.59;8225026;28;20137;-71
2022/04/25 15:46:01;;;;;;;1.35;1.15;;;;;;;15.22;58.33;98679.63;8221273;28;20054;-72
2022/04/25 15:50:03;;;;;;;2.03;1.93;;;;;;;15.56;56.98;98681.91;8200190;28;20039;-72
2022/04/25 15:58:25;;;;;;;2.08;1.80;;;;;;;15.52;55.61;98675.06;8222588;28;20190;-72
2022/04/25 16:02:27;;;;;;;1.70;1.60;;;;;;;15.30;56.00;98677.59;8232495;28;20494;-72
2022/04/25 16:06:29;;;;;;;1.92;1.83;;;;;;;15.17;56.33;98659.78;8229765;28;20054;-72
2022/04/25 16:10:30;;;;;;;1.73;1.27;;;;;;;15.03;54.63;98663.69;8201253;28;20741;-71
2022/04/25 16:14:33;;;;;;;2.60;1.52;;;;;;;15.01;55.29;98670.75;8200682;28;20078;-72
2022/04/25 16:18:35;;;;;;;3.17;1.48;;;;;;;15.05;55.60;98671.50;8211458;28;20102;-72
2022/04/25 16:22:37;;;;;;;1.93;1.50;;;;;;;15.06;56.56;98683.66;8224178;28;20122;-72
2022/04/25 16:26:39;;;;;;;1.52;1.40;;;;;;;15.04;57.00;98680.25;8197669;28;20782;-72
2022/04/25 16:30:40;;;;;;;5.03;1.70;;;;;;;15.05;57.89;98680.19;8194171;28;20062;-72
2022/04/25 16:34:42;;;;;;;4.15;3.03;;;;;;;15.11;57.16;98679.16;8221170;28;20652;-72
2022/04/25 16:38:43;;;;;;;3.58;3.05;;;;;;;15.22;55.82;98687.47;8215303;28;20078;-73
2022/04/25 16:42:45;;;;;;;2.37;1.53;;;;;;;15.31;54.55;98688.91;8199813;28;20454;-73
2022/04/25 16:46:49;;;;;;;1.95;1.77;;;;;;;15.32;53.80;98685.41;8189587;28;20047;-71
2022/04/25 16:50:50;;;;;;;2.00;1.80;;;;;;;15.23;53.85;98696.16;8224478;28;20043;-72
2022/04/25 16:54:51;;;;;;;2.67;1.63;;;;;;;15.15;54.43;98693.81;8202642;28;20134;-72
2022/04/25 16:58:53;;;;;;;2.42;1.30;;;;;;;15.10;55.21;98691.38;8218201;28;20088;-72
2022/04/25 17:02:55;;;;;;;2.50;1.70;;;;;;;15.02;54.51;98701.22;8203855;28;20039;-72
2022/04/25 17:06:56;;;;;;;3.45;1.60;;;;;;;14.96;54.98;98704.03;8216698;28;20047;-72
2022/04/25 17:10:59;;;;;;;3.00;1.90;;;;;;;14.86;55.21;98710.47;8193146;28;20066;-72
2022/04/25 17:15:02;;;;;;;1.98;1.83;;;;;;;14.71;54.32;98714.41;8212632;28;20066;-71
2022/04/25 17:19:03;;;;;;;2.70;2.20;;;;;;;14.63;54.42;98721.66;8209824;28;20062;-72
2022/04/25 17:23:06;;;;;;;2.03;1.83;;;;;;;14.55;55.59;98720.22;8193408;28;20057;-71
2022/04/25 17:27:07;;;;;;;;;;;;;;;14.43;57.80;98724.91;8210681;28;20038;-71
2022/04/25 17:35:33;;;;;;;2.58;1.27;;;;;;;13.95;61.14;98737.59;8208489;28;20058;-71
